Time;durP1;ratioP1;P1;durP2;ratioP2;P2;SDS_P1;SDS_P2;PMS_P1;PMS_P2;Temp;Humidity;BMP_temperature;BMP_pressure;BME280_temperature;BME280_humidity;BME280_pressure;Samples;Min_cycle;Max_cycle;Signal;HPM_P1;HPM_P2
2022/03/05 00:01:56;;;;;;;20.40;11.57;;;;;;;-1.64;100.00;98283.48;1795572;80;20977;-68
2022/03/05 00:04:23;;;;;;;18.73;10.77;;;;;;;-1.66;100.00;98292.89;1795466;80;21052;-68
2022/03/05 00:06:49;;;;;;;18.93;11.10;;;;;;;-1.66;100.00;98292.89;1795603;80;21483;-66
2022/03/05 00:09:20;;;;;;;19.70;10.70;;;;;;;-1.64;100.00;98285.64;1795568;78;21012;-67
2022/03/05 00:11:46;;;;;;;20.20;11.07;;;;;;;-1.64;100.00;98287.46;1795309;78;21483;-67
2022/03/05 00:14:15;;;;;;;19.57;10.60;;;;;;;-1.65;100.00;98294.55;1795598;78;21080;-67
2022/03/05 00:16:42;;;;;;;18.30;10.33;;;;;;;-1.68;100.00;98292.20;1795560;80;20997;-67
2022/03/05 00:19:09;;;;;;;19.03;10.30;;;;;;;-1.70;100.00;98293.29;1795468;80;21044;-67
2022/03/05 00:21:36;;;;;;;18.97;10.93;;;;;;;-1.70;100.00;98288.82;1795536;80;21060;-67
2022/03/05 00:24:03;;;;;;;19.33;11.00;;;;;;;-1.70;100.00;98288.82;1795437;80;21041;-68
2022/03/05 00:26:30;;;;;;;18.77;10.50;;;;;;;-1.70;100.00;98285.34;1795534;80;21033;-68
2022/03/05 00:28:57;;;;;;;18.87;10.77;;;;;;;-1.71;100.00;98284.51;1795521;80;21041;-66
2022/03/05 00:31:24;;;;;;;17.93;10.23;;;;;;;-1.73;100.00;98281.99;1795369;79;21020;-68
2022/03/05 00:33:50;;;;;;;20.30;10.63;;;;;;;-1.74;100.00;98283.45;1795812;80;21463;-66
2022/03/05 00:36:17;;;;;;;18.53;11.07;;;;;;;-1.75;100.00;98286.59;1795646;80;20985;-67
2022/03/05 00:38:45;;;;;;;18.30;10.47;;;;;;;-1.75;100.00;98284.44;1795866;78;21056;-67
2022/03/05 00:41:12;;;;;;;19.13;10.40;;;;;;;-1.76;100.00;98276.13;1795713;80;21080;-67
2022/03/05 00:43:39;;;;;;;20.47;11.37;;;;;;;-1.77;100.00;98285.90;1795760;80;21052;-67
2022/03/05 00:46:07;;;;;;;18.77;10.57;;;;;;;-1.77;100.00;98281.06;1795567;80;21008;-66
2022/03/05 00:48:34;;;;;;;20.30;11.00;;;;;;;-1.75;100.00;98289.25;1795438;80;21111;-67
2022/03/05 00:51:01;;;;;;;19.80;11.60;;;;;;;-1.76;100.00;98290.20;1795828;80;21440;-68
2022/03/05 00:53:27;;;;;;;21.63;11.53;;;;;;;-1.76;100.00;98291.53;1795776;80;21005;-67
2022/03/05 00:55:54;;;;;;;19.40;11.50;;;;;;;-1.77;100.00;98281.06;1795619;80;20982;-67
2022/03/05 00:58:21;;;;;;;20.80;11.27;;;;;;;-1.74;100.00;98283.45;1795444;80;20977;-66
2022/03/05 01:00:48;;;;;;;19.33;11.33;;;;;;;-1.76;100.00;98285.41;1795729;80;20973;-68
2022/03/05 01:03:14;;;;;;;19.77;11.53;;;;;;;-1.77;100.00;98286.36;1795248;80;21063;-67
2022/03/05 01:05:41;;;;;;;20.17;11.60;;;;;;;-1.77;100.00;98296.96;1795667;80;21025;-68
2022/03/05 01:08:09;;;;;;;18.87;11.13;;;;;;;-1.80;100.00;98283.52;1795448;80;21444;-67
2022/03/05 01:10:36;;;;;;;19.43;11.53;;;;;;;-1.82;100.00;98287.28;1795717;80;20996;-67
2022/03/05 01:13:03;;;;;;;20.30;11.23;;;;;;;-1.82;100.00;98289.44;1795364;80;21036;-67
2022/03/05 01:15:30;;;;;;;18.47;10.93;;;;;;;-1.83;100.00;98290.89;1795600;80;21064;-67
2022/03/05 01:17:58;;;;;;;18.37;10.77;;;;;;;-1.85;100.00;98292.84;1795208;78;21016;-67
2022/03/05 01:20:25;;;;;;;19.87;11.23;;;;;;;-1.88;100.00;98292.61;1795862;80;20977;-66
2022/03/05 01:22:52;;;;;;;20.53;11.30;;;;;;;-1.90;100.00;98298.54;1795347;80;21017;-67
2022/03/05 01:25:19;;;;;;;20.33;11.10;;;;;;;-1.90;100.00;98295.89;1795634;80;21111;-66
2022/03/05 01:27:46;;;;;;;19.43;11.03;;;;;;;-1.90;100.00;98298.54;1795515;80;21041;-67
2022/03/05 01:30:14;;;;;;;19.17;11.13;;;;;;;-1.92;100.00;98298.67;1795735;80;21015;-67
2022/03/05 01:32:41;;;;;;;21.27;10.93;;;;;;;-1.91;100.00;98303.50;1795868;80;21009;-67
2022/03/05 01:35:09;;;;;;;19.73;10.63;;;;;;;-1.94;100.00;98301.12;1795760;80;20995;-65
2022/03/05 01:37:36;;;;;;;18.87;10.50;;;;;;;-1.97;100.00;98306.67;1795601;80;21510;-67
2022/03/05 01:40:05;;;;;;;19.83;10.60;;;;;;;-2.01;100.00;98302.63;1795628;80;21013;-67
2022/03/05 01:42:31;;;;;;;19.27;10.40;;;;;;;-2.03;100.00;98308.05;1795792;80;21490;-67
2022/03/05 01:44:58;;;;;;;20.67;10.93;;;;;;;-2.02;100.00;98303.13;1798710;80;21356;-66
2022/03/05 01:47:25;;;;;;;18.00;10.23;;;;;;;-2.02;100.00;98308.42;1798235;80;21021;-66
2022/03/05 01:49:52;;;;;;;18.00;10.20;;;;;;;-2.03;100.00;98317.81;1797034;80;21089;-68
2022/03/05 01:52:19;;;;;;;18.67;10.10;;;;;;;-2.03;100.00;98320.47;1795979;80;21072;-67
2022/03/05 01:54:46;;;;;;;19.00;11.03;;;;;;;-2.04;100.00;98326.72;1795802;78;21056;-66
2022/03/05 01:57:13;;;;;;;17.10;9.77;;;;;;;-2.04;100.00;98334.17;1795570;80;21068;-66
2022/03/05 01:59:40;;;;;;;18.67;10.40;;;;;;;-2.06;100.00;98332.64;1795672;80;21025;-67
2022/03/05 02:02:06;;;;;;;19.30;10.70;;;;;;;-2.09;100.00;98333.73;1795185;80;20977;-67
2022/03/05 02:04:33;;;;;;;20.07;11.13;;;;;;;-2.10;100.00;98332.91;1795706;80;21017;-66
2022/03/05 02:07:00;;;;;;;17.83;10.40;;;;;;;-2.09;100.00;98331.08;1795432;78;21040;-67
2022/03/05 02:09:27;;;;;;;19.40;10.37;;;;;;;-2.08;100.00;98334.59;1795535;80;21028;-65
2022/03/05 02:11:56;;;;;;;17.57;9.83;;;;;;;-2.08;100.00;98336.74;1795321;80;20994;-66
2022/03/05 02:14:24;;;;;;;20.10;10.20;;;;;;;-2.10;100.00;98338.69;1795343;80;21557;-66
2022/03/05 02:16:51;;;;;;;19.30;10.90;;;;;;;-2.08;100.00;98329.30;1795596;80;21024;-67
2022/03/05 02:19:18;;;;;;;18.67;10.50;;;;;;;-2.07;100.00;98327.84;1795851;80;21001;-67
2022/03/05 02:21:46;;;;;;;20.60;11.27;;;;;;;-2.08;100.00;98340.72;1795246;80;21021;-67
2022/03/05 02:24:31;;;;;;;17.80;10.00;;;;;;;-2.14;100.00;98336.80;1795561;80;21001;-67
2022/03/05 02:26:45;;;;;;;18.42;10.35;;;;;;;-2.15;100.00;98341.72;1791672;80;20973;-66
2022/03/05 02:29:12;;;;;;;18.27;9.77;;;;;;;-2.16;100.00;98343.17;1795551;80;21005;-67
2022/03/05 02:31:38;;;;;;;17.33;9.53;;;;;;;-2.14;100.00;98343.41;1795544;80;21553;-67
2022/03/05 02:34:05;;;;;;;16.70;9.00;;;;;;;-2.14;100.00;98350.03;1795814;80;21467;-67
2022/03/05 02:36:32;;;;;;;17.77;9.57;;;;;;;-2.17;100.00;98348.97;1795574;80;21021;-67
2022/03/05 02:38:59;;;;;;;18.13;10.07;;;;;;;-2.17;100.00;98348.97;1795452;80;21033;-67
2022/03/05 02:41:27;;;;;;;17.47;9.50;;;;;;;-2.16;100.00;98349.80;1795764;80;20974;-66
2022/03/05 02:43:54;;;;;;;16.97;9.03;;;;;;;-2.16;100.00;98351.12;1795758;78;21006;-67
2022/03/05 02:46:28;;;;;;;16.60;9.37;;;;;;;-2.18;100.00;98352.60;1790959;80;20994;-66
2022/03/05 02:48:55;;;;;;;17.10;9.40;;;;;;;-2.19;100.00;98351.41;1713002;83;21043;-67
2022/03/05 02:51:22;;;;;;;17.40;9.50;;;;;;;-2.19;100.00;98350.08;1713286;84;21572;-67
2022/03/05 02:53:49;;;;;;;16.63;9.70;;;;;;;-2.18;100.00;98353.06;1713201;84;21098;-67
2022/03/05 02:56:17;;;;;;;18.50;9.67;;;;;;;-2.20;100.00;98353.69;1712963;84;21086;-67
2022/03/05 02:58:44;;;;;;;18.77;9.67;;;;;;;-2.21;100.00;98355.51;1713433;84;21015;-67
2022/03/05 03:01:11;;;;;;;17.33;9.47;;;;;;;-2.20;100.00;98356.34;1713589;83;21545;-67
2022/03/05 03:03:38;;;;;;;16.47;9.40;;;;;;;-2.20;100.00;98362.95;1713253;84;20984;-66
2022/03/05 03:06:08;;;;;;;16.70;9.00;;;;;;;-2.20;100.00;98365.11;1713238;84;21516;-67
2022/03/05 03:08:35;;;;;;;16.57;9.13;;;;;;;-2.19;100.00;98356.70;1713236;84;21027;-67
2022/03/05 03:11:02;;;;;;;16.47;9.00;;;;;;;-2.19;100.00;98369.45;1713230;84;21031;-66
2022/03/05 03:13:29;;;;;;;17.07;8.93;;;;;;;-2.19;100.00;98360.19;1713234;84;21102;-66
2022/03/05 03:15:56;;;;;;;15.93;8.87;;;;;;;-2.20;100.00;98369.08;1713292;84;21027;-66
2022/03/05 03:18:23;;;;;;;17.10;9.07;;;;;;;-2.22;100.00;98364.90;1713091;84;21038;-66
2022/03/05 03:20:51;;;;;;;17.23;9.17;;;;;;;-2.24;100.00;98370.81;1713307;84;21055;-67
2022/03/05 03:23:17;;;;;;;16.50;9.33;;;;;;;-2.24;100.00;98370.33;1713190;84;21007;-67
2022/03/05 03:25:44;;;;;;;18.30;9.17;;;;;;;-2.24;100.00;98370.81;1712983;84;21106;-67
2022/03/05 03:28:11;;;;;;;16.43;8.57;;;;;;;-2.24;100.00;98372.14;1713306;84;21023;-67
2022/03/05 03:30:38;;;;;;;16.70;8.97;;;;;;;-2.23;100.00;98377.31;1713298;84;21061;-66
2022/03/05 03:33:05;;;;;;;15.40;8.50;;;;;;;-2.23;100.00;98373.34;1713369;84;21003;-67
2022/03/05 03:35:32;;;;;;;17.00;9.00;;;;;;;-2.25;100.00;98372.61;1712951;84;21035;-67
2022/03/05 03:37:58;;;;;;;16.23;8.77;;;;;;;-2.25;100.00;98382.36;1713148;84;21081;-68
2022/03/05 03:40:25;;;;;;;17.17;8.80;;;;;;;-2.26;100.00;98381.53;1712044;83;21055;-67
2022/03/05 03:42:51;;;;;;;18.40;9.20;;;;;;;-2.29;100.00;98385.27;1710753;84;21565;-66
2022/03/05 03:45:19;;;;;;;16.33;8.80;;;;;;;-2.29;100.00;98384.44;1738810;81;21694;-67
2022/03/05 03:47:48;;;;;;;16.67;8.53;;;;;;;-2.27;100.00;98387.78;1778533;80;21065;-68
2022/03/05 03:50:17;;;;;;;17.70;9.30;;;;;;;-2.26;100.00;98392.13;1778620;81;21523;-67
2022/03/05 03:52:44;;;;;;;15.20;8.37;;;;;;;-2.24;100.00;98391.51;1777722;80;21018;-66
2022/03/05 03:55:14;;;;;;;16.07;8.63;;;;;;;-2.23;100.00;98392.34;1778646;81;21464;-66
2022/03/05 03:57:41;;;;;;;16.33;8.70;;;;;;;-2.25;100.00;98396.92;1778586;81;20998;-67
2022/03/05 04:00:11;;;;;;;15.77;8.40;;;;;;;-2.24;100.00;98396.80;1778637;81;21053;-67
2022/03/05 04:02:41;;;;;;;15.18;8.25;;;;;;;-2.27;100.00;98396.23;1778793;79;21523;-66
2022/03/05 04:05:09;;;;;;;15.80;8.70;;;;;;;-2.29;100.00;98400.32;1778375;80;21531;-66
2022/03/05 04:10:24;;;;;;;15.77;8.30;;;;;;;-2.33;100.00;98401.06;1778824;81;21023;-67
2022/03/05 04:12:52;;;;;;;15.33;8.60;;;;;;;-2.36;100.00;98404.45;1778969;79;21018;-67
2022/03/05 04:15:19;;;;;;;16.67;8.40;;;;;;;-2.37;100.00;98398.33;1778592;81;21519;-68
2022/03/05 04:17:46;;;;;;;15.67;8.30;;;;;;;-2.38;100.00;98407.23;1778988;80;21053;-67
2022/03/05 04:20:14;;;;;;;15.80;8.33;;;;;;;-2.40;100.00;98410.50;1778763;81;21014;-68
2022/03/05 04:22:41;;;;;;;15.70;8.17;;;;;;;-2.39;100.00;98403.39;1778785;79;21034;-67
2022/03/05 04:25:09;;;;;;;13.53;7.73;;;;;;;-2.39;100.00;98409.55;1778712;80;21026;-67
2022/03/05 04:27:35;;;;;;;14.67;8.07;;;;;;;-2.41;100.00;98412.77;1778748;81;21049;-67
2022/03/05 04:30:04;;;;;;;14.90;8.40;;;;;;;-2.44;100.00;98405.58;1778727;79;21022;-67
2022/03/05 04:32:32;;;;;;;13.87;7.77;;;;;;;-2.48;100.00;98410.29;1778790;81;21022;-67
2022/03/05 04:34:59;;;;;;;15.43;8.10;;;;;;;-2.48;100.00;98408.97;1778581;81;21037;-68
2022/03/05 04:37:25;;;;;;;14.40;8.20;;;;;;;-2.48;100.00;98418.23;1778661;81;21021;-66
2022/03/05 04:39:52;;;;;;;12.70;7.63;;;;;;;-2.51;100.00;98409.24;1782264;80;21433;-67
2022/03/05 04:42:19;;;;;;;16.20;8.27;;;;;;;-2.50;100.00;98425.46;1787257;80;21006;-66
2022/03/05 04:44:53;;;;;;;15.13;8.03;;;;;;;-2.48;100.00;98422.20;1787079;80;21550;-68
2022/03/05 04:47:20;;;;;;;16.90;7.90;;;;;;;-2.47;100.00;98426.54;1790678;79;20999;-67
2022/03/05 04:49:47;;;;;;;15.77;8.40;;;;;;;-2.48;100.00;98420.88;1795380;80;21038;-68
2022/03/05 04:52:14;;;;;;;15.53;8.27;;;;;;;-2.50;100.00;98429.43;1795841;79;21018;-67
2022/03/05 04:54:40;;;;;;;15.67;8.00;;;;;;;-2.52;100.00;98424.27;1795815;80;21484;-66
2022/03/05 04:57:07;;;;;;;16.83;7.83;;;;;;;-2.51;100.00;98430.42;1795348;80;21480;-67
2022/03/05 04:59:34;;;;;;;12.67;7.33;;;;;;;-2.52;100.00;98428.72;1795662;80;21034;-66
2022/03/05 05:02:02;;;;;;;15.93;8.03;;;;;;;-2.50;100.00;98431.62;1795552;79;21054;-66
2022/03/05 05:04:29;;;;;;;14.87;8.10;;;;;;;-2.48;100.00;98434.11;1795307;80;21065;-67
2022/03/05 05:06:56;;;;;;;14.70;7.60;;;;;;;-2.45;100.00;98434.36;1795634;80;20994;-66
2022/03/05 05:09:23;;;;;;;16.63;8.00;;;;;;;-2.44;100.00;98435.55;1795692;80;21094;-67
2022/03/05 05:11:50;;;;;;;15.77;8.30;;;;;;;-2.45;100.00;98437.00;1795622;78;21049;-68
2022/03/05 05:14:17;;;;;;;11.77;7.27;;;;;;;-2.43;100.00;98448.30;1795298;80;21496;-66
2022/03/05 05:16:44;;;;;;;14.83;7.70;;;;;;;-2.43;100.00;98442.51;1795750;79;21030;-66
2022/03/05 05:19:29;;;;;;;13.17;7.60;;;;;;;-2.44;100.00;98438.20;1795246;79;21039;-67
2022/03/05 05:22:02;;;;;;;16.10;7.60;;;;;;;-2.43;100.00;98448.30;1803140;79;21496;-66
2022/03/05 05:24:34;;;;;;;14.58;7.60;;;;;;;-2.43;100.00;98446.97;1795461;79;21065;-67
2022/03/05 05:27:01;;;;;;;13.73;7.60;;;;;;;-2.42;100.00;98452.14;1795631;80;21014;-66
2022/03/05 05:29:28;;;;;;;16.07;7.73;;;;;;;-2.42;100.00;98449.99;1795738;80;20963;-67
2022/03/05 05:31:55;;;;;;;13.90;7.60;;;;;;;-2.45;100.00;98459.01;1795461;79;21022;-67
2022/03/05 05:34:23;;;;;;;15.80;7.90;;;;;;;-2.45;100.00;98456.36;1795410;80;21050;-66
2022/03/05 05:36:50;;;;;;;14.40;7.37;;;;;;;-2.43;100.00;98459.72;1795446;80;20983;-67
2022/03/05 05:39:17;;;;;;;13.83;7.03;;;;;;;-2.40;100.00;98464.77;1795291;79;21012;-67
2022/03/05 05:41:45;;;;;;;13.50;6.73;;;;;;;-2.36;100.00;98471.47;1795550;80;21017;-66
2022/03/05 05:44:19;;;;;;;13.03;7.27;;;;;;;-2.35;100.00;98474.49;1795532;79;21052;-69
2022/03/05 05:46:46;;;;;;;14.23;7.43;;;;;;;-2.30;100.00;98472.80;1794317;80;21024;-67
2022/03/05 05:49:13;;;;;;;14.63;7.27;;;;;;;-2.27;100.00;98473.01;1770263;81;21030;-67
2022/03/05 05:51:41;;;;;;;12.93;7.23;;;;;;;-2.24;100.00;98474.08;1770057;81;21061;-67
2022/03/05 05:54:08;;;;;;;14.73;7.43;;;;;;;-2.23;100.00;98477.94;1770194;81;20995;-66
2022/03/05 05:56:36;;;;;;;12.80;6.80;;;;;;;-2.23;100.00;98482.36;1770279;81;20991;-67
2022/03/05 05:59:04;;;;;;;12.50;7.17;;;;;;;-2.21;100.00;98485.72;1770403;81;21034;-67
2022/03/05 06:01:31;;;;;;;13.17;6.80;;;;;;;-2.21;100.00;98483.94;1770503;81;21019;-67
2022/03/05 06:03:59;;;;;;;11.10;6.73;;;;;;;-2.17;100.00;98487.16;1770415;81;21444;-68
2022/03/05 06:06:26;;;;;;;12.77;6.70;;;;;;;-2.14;100.00;98490.39;1770444;81;21526;-68
2022/03/05 06:08:52;;;;;;;15.07;7.27;;;;;;;-2.13;100.00;98486.77;1770403;80;21046;-67
2022/03/05 06:11:19;;;;;;;11.80;7.00;;;;;;;-2.10;100.00;98490.98;1770459;81;21029;-68
2022/03/05 06:13:46;;;;;;;21.17;11.53;;;;;;;-2.08;100.00;98494.83;1769458;80;21053;-68
2022/03/05 06:16:15;;;;;;;21.67;13.00;;;;;;;-2.01;100.00;98497.31;1770064;81;21135;-68
2022/03/05 06:18:42;;;;;;;12.73;7.17;;;;;;;-1.96;100.00;98501.25;1770097;81;21488;-66
2022/03/05 06:21:09;;;;;;;13.53;7.03;;;;;;;-1.92;100.00;98498.69;1769953;81;21037;-68
2022/03/05 06:23:37;;;;;;;13.27;7.10;;;;;;;-1.89;100.00;98496.28;1770567;81;21465;-69
2022/03/05 06:26:04;;;;;;;14.37;6.97;;;;;;;-1.84;100.00;98497.20;1770523;81;21477;-66
2022/03/05 06:28:32;;;;;;;12.37;6.77;;;;;;;-1.88;100.00;98496.62;1770127;81;21026;-68
2022/03/05 06:30:59;;;;;;;11.93;6.57;;;;;;;-1.88;100.00;98497.11;1770391;81;21053;-66
2022/03/05 06:33:26;;;;;;;11.93;6.37;;;;;;;-1.94;100.00;98498.47;1770495;80;21018;-67
2022/03/05 06:35:53;;;;;;;14.60;7.10;;;;;;;-1.96;100.00;98504.39;1758975;80;21073;-68
2022/03/05 06:38:21;;;;;;;13.70;6.60;;;;;;;-1.97;100.00;98511.48;1749276;79;21006;-67
2022/03/05 06:40:48;;;;;;;16.77;8.47;;;;;;;-1.93;100.00;98506.76;1778554;80;21084;-67
2022/03/05 06:43:15;;;;;;;12.77;6.80;;;;;;;-1.88;100.00;98510.36;1784067;80;21038;-67
2022/03/05 06:45:43;;;;;;;18.00;8.50;;;;;;;-1.87;100.00;98507.58;1782263;80;21524;-67
2022/03/05 06:48:10;;;;;;;14.43;7.03;;;;;;;-1.89;100.00;98505.55;1780446;80;21058;-66
2022/03/05 06:50:37;;;;;;;12.23;6.23;;;;;;;-1.91;100.00;98510.14;1780130;80;21058;-68
2022/03/05 06:53:04;;;;;;;13.20;6.53;;;;;;;-1.89;100.00;98508.20;1781241;80;21492;-68
2022/03/05 06:55:31;;;;;;;13.63;6.90;;;;;;;-1.88;100.00;98505.89;1781698;80;20967;-74
2022/03/05 06:57:58;;;;;;;12.53;6.67;;;;;;;-1.87;100.00;98503.61;1783043;80;21054;-76
2022/03/05 07:00:24;;;;;;;12.70;6.67;;;;;;;-1.90;100.00;98507.83;1783193;80;20960;-78
2022/03/05 07:02:51;;;;;;;14.77;7.50;;;;;;;-1.93;100.00;98508.95;1783231;80;21019;-77
2022/03/05 07:05:19;;;;;;;12.67;6.77;;;;;;;-1.89;100.00;98513.97;1771042;80;20991;-78
2022/03/05 07:07:45;;;;;;;12.20;6.23;;;;;;;-1.86;100.00;98506.63;1783188;79;21055;-77
2022/03/05 07:10:12;;;;;;;12.87;6.50;;;;;;;-1.84;100.00;98509.12;1783166;80;20985;-76
2022/03/05 07:12:40;;;;;;;13.03;6.60;;;;;;;-1.81;100.00;98508.38;1782549;80;21006;-76
2022/03/05 07:15:08;;;;;;;12.13;6.83;;;;;;;-1.77;100.00;98503.19;1782995;80;21027;-75
2022/03/05 07:17:35;;;;;;;12.73;6.43;;;;;;;-1.76;100.00;98500.05;1782609;80;21037;-75
2022/03/05 07:20:04;;;;;;;12.17;6.57;;;;;;;-1.74;100.00;98504.23;1782798;80;20949;-74
2022/03/05 07:22:31;;;;;;;12.50;6.57;;;;;;;-1.72;100.00;98507.61;1782056;80;21482;-68
2022/03/05 07:24:59;;;;;;;14.20;7.37;;;;;;;-1.77;100.00;98509.81;1781521;80;21470;-67
2022/03/05 07:27:26;;;;;;;14.30;7.30;;;;;;;-1.78;100.00;98508.13;1781607;79;21015;-68
2022/03/05 07:29:54;;;;;;;13.20;6.87;;;;;;;-1.79;100.00;98502.48;1781770;80;21041;-69
2022/03/05 07:32:21;;;;;;;13.07;6.33;;;;;;;-1.78;100.00;98505.97;1781629;80;21439;-69
2022/03/05 07:34:48;;;;;;;13.67;7.20;;;;;;;-1.80;100.00;98502.11;1781732;80;20993;-67
2022/03/05 07:37:15;;;;;;;16.00;7.50;;;;;;;-1.83;100.00;98510.81;1781484;80;21052;-68
2022/03/05 07:39:41;;;;;;;16.77;8.30;;;;;;;-1.80;100.00;98506.59;1777495;80;20982;-66
2022/03/05 07:42:09;;;;;;;14.43;7.27;;;;;;;-1.74;100.00;98511.34;1770586;81;20999;-67
2022/03/05 07:44:36;;;;;;;16.37;7.70;;;;;;;-1.72;100.00;98512.05;1770502;81;21020;-69
2022/03/05 07:47:04;;;;;;;16.60;7.90;;;;;;;-1.74;100.00;98517.48;1779738;80;21519;-66
2022/03/05 07:49:31;;;;;;;17.60;8.17;;;;;;;-1.75;100.00;98516.31;1789476;79;21008;-67
2022/03/05 07:51:58;;;;;;;14.57;7.30;;;;;;;-1.72;100.00;98517.36;1789976;80;21056;-68
2022/03/05 07:54:27;;;;;;;14.00;7.00;;;;;;;-1.70;100.00;98519.38;1789999;80;21034;-68
2022/03/05 07:56:53;;;;;;;22.97;10.00;;;;;;;-1.68;100.00;98524.56;1785046;80;21001;-68
2022/03/05 07:59:20;;;;;;;21.80;9.97;;;;;;;-1.69;100.00;98517.10;1772954;80;21536;-68
2022/03/05 08:01:47;;;;;;;18.53;8.83;;;;;;;-1.65;100.00;98517.67;1768163;80;20952;-68
2022/03/05 08:04:14;;;;;;;15.73;7.70;;;;;;;-1.61;100.00;98519.09;1761682;80;20940;-68
2022/03/05 08:06:41;;;;;;;15.07;7.87;;;;;;;-1.58;100.00;98528.11;1759155;80;21451;-67
2022/03/05 08:09:08;;;;;;;19.70;9.33;;;;;;;-1.53;100.00;98519.28;1751580;80;20988;-69
2022/03/05 08:11:37;;;;;;;23.00;10.83;;;;;;;-1.45;100.00;98523.45;1748733;82;21044;-67
2022/03/05 08:14:04;;;;;;;17.60;8.30;;;;;;;-1.38;100.00;98519.30;1742015;80;21055;-69
2022/03/05 08:16:32;;;;;;;15.97;7.67;;;;;;;-1.34;100.00;98517.22;1730280;82;21020;-66
2022/03/05 08:19:00;;;;;;;19.73;9.13;;;;;;;-1.31;100.00;98518.75;1748540;82;21072;-67
2022/03/05 08:21:28;;;;;;;13.30;6.90;;;;;;;-1.30;100.00;98521.27;1738227;82;21035;-66
2022/03/05 08:23:55;;;;;;;14.93;7.77;;;;;;;-1.31;100.00;98519.61;1732623;82;21477;-69
2022/03/05 08:26:22;;;;;;;14.07;7.27;;;;;;;-1.34;100.00;98523.84;1748460;82;21012;-69
2022/03/05 08:28:49;;;;;;;12.23;6.63;;;;;;;-1.34;100.00;98522.52;1731721;82;21011;-67
2022/03/05 08:31:16;;;;;;;11.87;6.30;;;;;;;-1.37;100.00;98525.43;1746087;82;21027;-68
2022/03/05 08:33:43;;;;;;;14.00;7.33;;;;;;;-1.41;100.00;98526.67;1747013;80;21020;-69
2022/03/05 08:36:09;;;;;;;17.57;9.23;;;;;;;-1.42;100.00;98535.09;1736368;82;21027;-69
2022/03/05 08:38:36;;;;;;;19.30;10.10;;;;;;;-1.41;100.00;98534.14;1739401;82;21031;-67
2022/03/05 08:41:04;;;;;;;21.43;11.33;;;;;;;-1.37;100.00;98536.87;1738305;82;21384;-68
2022/03/05 08:43:31;;;;;;;11.97;6.27;;;;;;;-1.35;100.00;98544.23;1753965;82;21396;-66
2022/03/05 08:45:58;;;;;;;15.40;8.17;;;;;;;-1.35;100.00;98544.23;1746027;82;21055;-67
2022/03/05 08:48:25;;;;;;;12.63;6.40;;;;;;;-1.37;100.00;98549.30;1761962;79;21041;-67
2022/03/05 08:50:51;;;;;;;19.70;12.27;;;;;;;-1.35;100.00;98546.88;1793998;79;21025;-68
2022/03/05 08:53:18;;;;;;;13.60;7.97;;;;;;;-1.33;100.00;98557.33;1794971;80;21006;-68
2022/03/05 08:55:45;;;;;;;13.00;6.90;;;;;;;-1.26;100.00;98556.33;1795123;80;21012;-67
2022/03/05 08:58:12;;;;;;;12.90;6.23;;;;;;;-1.27;100.00;98557.31;1795764;78;21013;-67
2022/03/05 09:00:39;;;;;;;12.83;6.50;;;;;;;-1.31;100.00;98562.51;1795851;80;21307;-67
2022/03/05 09:03:06;;;;;;;11.77;6.07;;;;;;;-1.36;100.00;98558.95;1795528;78;20993;-66
2022/03/05 09:05:33;;;;;;;12.63;6.37;;;;;;;-1.40;100.00;98561.48;1794630;80;21013;-67
2022/03/05 09:07:59;;;;;;;12.93;6.70;;;;;;;-1.39;100.00;98557.88;1794956;80;21526;-67
2022/03/05 09:10:27;;;;;;;9.70;5.90;;;;;;;-1.35;100.00;98565.91;1795495;78;21041;-67
2022/03/05 09:12:53;;;;;;;11.50;5.77;;;;;;;-1.36;100.00;98563.75;1795373;80;21457;-65
2022/03/05 09:15:22;;;;;;;13.97;6.10;;;;;;;-1.37;100.00;98566.53;1795380;79;21007;-66
2022/03/05 09:17:50;;;;;;;12.00;6.60;;;;;;;-1.40;100.00;98570.30;1794766;79;21550;-67
2022/03/05 09:20:19;;;;;;;11.93;6.20;;;;;;;-1.39;100.00;98573.29;1795375;79;21030;-67
2022/03/05 09:22:47;;;;;;;13.20;6.30;;;;;;;-1.37;100.00;98573.16;1794354;80;21070;-67
2022/03/05 09:25:14;;;;;;;11.63;6.30;;;;;;;-1.37;100.00;98575.31;1794177;80;21042;-68
2022/03/05 09:27:41;;;;;;;10.73;5.87;;;;;;;-1.31;100.00;98578.42;1794176;80;21480;-68
2022/03/05 09:30:09;;;;;;;12.40;6.37;;;;;;;-1.29;100.00;98581.78;1794886;79;21563;-74
2022/03/05 09:32:36;;;;;;;14.10;6.73;;;;;;;-1.26;100.00;98575.72;1796442;79;20986;-76
2022/03/05 09:35:04;;;;;;;11.90;6.40;;;;;;;-1.26;100.00;98577.05;1796196;80;21475;-75
2022/03/05 09:37:33;;;;;;;12.70;6.47;;;;;;;-1.27;100.00;98576.71;1796564;79;21515;-74
2022/03/05 09:40:00;;;;;;;11.30;6.50;;;;;;;-1.28;100.00;98569.72;1796646;79;21068;-76
2022/03/05 09:42:26;;;;;;;11.83;6.30;;;;;;;-1.26;100.00;98576.22;1796564;80;21022;-74
2022/03/05 09:44:53;;;;;;;18.27;8.37;;;;;;;-1.23;100.00;98577.29;1778723;80;20971;-76
2022/03/05 09:47:23;;;;;;;24.33;10.07;;;;;;;-1.18;100.00;98576.41;1796256;80;21014;-76
2022/03/05 09:49:50;;;;;;;16.13;7.50;;;;;;;-1.13;100.00;98579.97;1784717;80;21304;-76
2022/03/05 09:52:17;;;;;;;12.93;6.63;;;;;;;-1.09;100.00;98584.89;1783122;79;21074;-75
2022/03/05 09:54:46;;;;;;;13.80;6.50;;;;;;;-1.08;100.00;98580.42;1782968;80;21022;-76
2022/03/05 09:57:14;;;;;;;12.03;6.80;;;;;;;-1.07;100.00;98582.11;1782799;80;21489;-75
2022/03/05 09:59:41;;;;;;;12.50;6.93;;;;;;;-1.07;100.00;98585.59;1783143;80;21027;-75
2022/03/05 10:02:08;;;;;;;11.53;6.33;;;;;;;-1.07;100.00;98590.07;1783327;80;21464;-75
2022/03/05 10:04:39;;;;;;;10.93;5.93;;;;;;;-1.08;100.00;98589.23;1783226;80;21059;-75
2022/03/05 10:07:16;;;;;;;14.67;7.60;;;;;;;-1.08;100.00;98589.70;1798121;80;21010;-76
2022/03/05 10:09:46;;;;;;;12.80;6.57;;;;;;;-1.09;100.00;98587.55;1783246;80;21069;-75
2022/03/05 10:12:33;;;;;;;10.93;5.90;;;;;;;-1.11;100.00;98592.14;1783130;80;21017;-76
2022/03/05 10:15:17;;;;;;;12.47;6.10;;;;;;;-1.12;100.00;98587.80;1698292;84;21022;-75
2022/03/05 10:17:58;;;;;;;12.87;7.30;;;;;;;-1.13;100.00;98587.92;1698073;83;21517;-75
2022/03/05 10:20:28;;;;;;;13.93;7.00;;;;;;;-1.14;100.00;98588.42;1698280;84;21077;-75
2022/03/05 10:23:09;;;;;;;19.00;7.40;;;;;;;-1.16;100.00;98593.86;1698072;84;21042;-74
2022/03/05 10:25:46;;;;;;;17.83;7.63;;;;;;;-1.18;100.00;98595.80;1697889;84;21058;-73
2022/03/05 10:28:23;;;;;;;14.43;6.93;;;;;;;-1.14;100.00;98599.03;1646298;86;21111;-75
2022/03/05 10:31:02;;;;;;;14.97;7.10;;;;;;;-1.11;100.00;98596.13;1645984;87;21144;-74
2022/03/05 10:33:44;;;;;;;21.90;10.20;;;;;;;-1.07;100.00;98602.84;1645741;87;21092;-74
2022/03/05 10:36:23;;;;;;;17.40;7.80;;;;;;;-1.01;100.00;98606.77;1586723;90;21106;-68
2022/03/05 10:38:56;;;;;;;18.47;8.87;;;;;;;-0.98;100.00;98607.34;1585612;90;21106;-68
2022/03/05 10:41:39;;;;;;;15.32;7.70;;;;;;;-0.97;100.00;98610.36;1540273;92;21611;-67
2022/03/05 10:44:18;;;;;;;17.63;8.77;;;;;;;-0.90;100.00;98605.84;1559920;92;21094;-67
2022/03/05 10:47:04;;;;;;;21.57;12.27;;;;;;;-0.81;100.00;98601.91;1559807;92;21125;-69
2022/03/05 10:49:37;;;;;;;13.10;7.27;;;;;;;-0.77;100.00;98605.97;1557120;90;21247;-67
2022/03/05 10:52:08;;;;;;;13.13;6.97;;;;;;;-0.77;100.00;98611.77;1556119;92;21110;-68
2022/03/05 10:57:14;;;;;;;16.43;8.00;;;;;;;-0.74;100.00;98612.84;1534732;93;21158;-67
2022/03/05 10:59:53;;;;;;;14.40;7.37;;;;;;;-0.68;100.00;98612.78;1534551;93;21078;-67
2022/03/05 11:02:22;;;;;;;13.63;6.77;;;;;;;-0.65;100.00;98619.98;1517931;94;21143;-67
2022/03/05 11:04:51;;;;;;;14.20;7.70;;;;;;;-0.65;100.00;98609.86;1517993;94;21080;-68
2022/03/05 11:07:23;;;;;;;12.70;6.50;;;;;;;-0.64;100.00;98611.52;1518137;94;21139;-68
2022/03/05 11:09:50;;;;;;;11.20;6.27;;;;;;;-0.63;100.00;98611.89;1517987;94;21112;-67
2022/03/05 11:12:19;;;;;;;13.00;6.67;;;;;;;-0.70;100.00;98610.75;1545147;92;21567;-68
2022/03/05 11:14:49;;;;;;;13.20;7.20;;;;;;;-0.81;100.00;98611.20;1557165;92;21180;-67
2022/03/05 11:17:17;;;;;;;13.13;6.70;;;;;;;-0.83;100.00;98622.94;1557308;92;21112;-68
2022/03/05 11:19:45;;;;;;;11.23;6.70;;;;;;;-0.85;100.00;98622.20;1557460;92;21076;-71
2022/03/05 11:22:15;;;;;;;14.80;7.20;;;;;;;-0.85;100.00;98621.73;1557366;91;21072;-68
2022/03/05 11:24:44;;;;;;;14.33;7.40;;;;;;;-0.81;100.00;98624.96;1509382;94;21080;-68